createdAt,value
2018-02-27T00:00:11.035Z,1020.37
2018-02-27T00:01:11.043Z,1020.35
2018-02-27T00:02:11.049Z,1020.35
2018-02-27T00:03:11.058Z,1020.34
2018-02-27T00:04:11.063Z,1020.35
2018-02-27T00:05:11.070Z,1020.36
2018-02-27T00:06:11.073Z,1020.30
2018-02-27T00:07:11.082Z,1020.31
2018-02-27T00:08:11.088Z,1020.30
2018-02-27T00:09:11.096Z,1020.32
2018-02-27T00:10:11.101Z,1020.36
2018-02-27T00:11:11.108Z,1020.32
2018-02-27T00:12:11.118Z,1020.32
2018-02-27T00:13:11.121Z,1020.30
2018-02-27T00:14:11.128Z,1020.28
2018-02-27T00:15:11.141Z,1020.28
2018-02-27T00:16:11.141Z,1020.26
2018-02-27T00:17:11.149Z,1020.32
2018-02-27T00:18:11.155Z,1020.34
2018-02-27T00:19:11.165Z,1020.33
2018-02-27T00:20:11.169Z,1020.33
2018-02-27T00:21:11.174Z,1020.29
2018-02-27T00:22:11.182Z,1020.34
2018-02-27T00:23:11.187Z,1020.32
2018-02-27T00:24:11.194Z,1020.31
2018-02-27T00:25:11.201Z,1020.34
2018-02-27T00:26:11.207Z,1020.32
2018-02-27T00:27:11.217Z,1020.32
2018-02-27T00:28:11.221Z,1020.32
2018-02-27T00:29:11.238Z,1020.29
2018-02-27T00:30:11.233Z,1020.31
2018-02-27T00:31:11.241Z,1020.26
2018-02-27T00:32:11.250Z,1020.30
2018-02-27T00:33:11.254Z,1020.31
2018-02-27T00:34:11.262Z,1020.29
2018-02-27T00:35:11.268Z,1020.29
2018-02-27T00:36:11.276Z,1020.23
2018-02-27T00:37:11.281Z,1020.28
2018-02-27T00:38:11.287Z,1020.29
2018-02-27T00:39:11.297Z,1020.25
2018-02-27T00:40:11.302Z,1020.26
2018-02-27T00:41:11.308Z,1020.24
2018-02-27T00:42:11.313Z,1020.22
2018-02-27T00:43:11.321Z,1020.26
2018-02-27T00:44:11.328Z,1020.27
2018-02-27T00:45:11.336Z,1020.26
2018-02-27T00:46:11.343Z,1020.24
2018-02-27T00:47:11.348Z,1020.24
2018-02-27T00:48:11.362Z,1020.23
2018-02-27T00:49:11.361Z,1020.24
2018-02-27T00:50:11.370Z,1020.21
2018-02-27T00:51:11.375Z,1020.20
2018-02-27T00:52:11.382Z,1020.19
2018-02-27T00:53:11.389Z,1020.19
2018-02-27T00:54:11.398Z,1020.17
2018-02-27T00:55:11.402Z,1020.15
2018-02-27T00:56:11.407Z,1020.15
2018-02-27T00:57:11.414Z,1020.17
2018-02-27T00:58:11.423Z,1020.17
2018-02-27T00:59:11.428Z,1020.16
2018-02-27T01:00:11.438Z,1020.13
2018-02-27T01:01:11.441Z,1020.13
2018-02-27T01:02:11.447Z,1020.11
2018-02-27T01:03:11.453Z,1020.13
2018-02-27T01:04:11.461Z,1020.06
2018-02-27T01:05:11.466Z,1020.12
2018-02-27T01:06:11.473Z,1020.07
2018-02-27T01:07:11.480Z,1020.05
2018-02-27T01:08:11.488Z,1020.05
2018-02-27T01:09:11.494Z,1020.03
2018-02-27T01:10:11.501Z,1020.07
2018-02-27T01:11:11.507Z,1020.02
2018-02-27T01:12:11.514Z,1020.04
2018-02-27T01:13:11.523Z,1020.09
2018-02-27T01:14:11.528Z,1020.09
2018-02-27T01:15:11.534Z,1020.07
2018-02-27T01:16:11.540Z,1020.08
2018-02-27T01:17:11.550Z,1020.06
2018-02-27T01:18:11.560Z,1020.07
2018-02-27T01:19:11.560Z,1020.06
2018-02-27T01:20:11.567Z,1020.11
2018-02-27T01:21:11.574Z,1020.09
2018-02-27T01:22:11.579Z,1020.06
2018-02-27T01:23:11.586Z,1020.04
2018-02-27T01:24:11.593Z,1020.01
2018-02-27T01:25:11.601Z,1020.00
2018-02-27T01:26:11.605Z,1020.00
2018-02-27T01:27:11.612Z,1019.99
2018-02-27T01:28:11.621Z,1019.98
2018-02-27T01:29:11.627Z,1020.02
2018-02-27T01:30:11.634Z,1020.00
2018-02-27T01:31:11.659Z,1019.97
2018-02-27T01:32:11.646Z,1019.97
2018-02-27T01:33:11.653Z,1020.00
2018-02-27T01:34:11.665Z,1019.96
2018-02-27T01:35:11.667Z,1019.97
2018-02-27T01:36:11.674Z,1019.94
2018-02-27T01:37:11.681Z,1019.93
2018-02-27T01:38:11.686Z,1019.91
2018-02-27T01:39:11.693Z,1019.95
2018-02-27T01:40:11.701Z,1019.93
2018-02-27T01:41:11.707Z,1019.88
2018-02-27T01:42:11.716Z,1019.85
2018-02-27T01:43:11.719Z,1019.88
2018-02-27T01:44:11.730Z,1019.88
2018-02-27T01:45:11.735Z,1019.86
2018-02-27T01:46:11.739Z,1019.86
2018-02-27T01:47:11.745Z,1019.83
2018-02-27T01:48:11.753Z,1019.82
2018-02-27T01:49:11.760Z,1019.80
2018-02-27T01:50:11.770Z,1019.75
2018-02-27T01:51:11.772Z,1019.76
2018-02-27T01:52:11.779Z,1019.75
2018-02-27T01:53:11.787Z,1019.72
2018-02-27T01:54:11.792Z,1019.71
2018-02-27T01:55:11.799Z,1019.72
2018-02-27T01:56:11.806Z,1019.73
2018-02-27T01:57:11.812Z,1019.66
2018-02-27T01:58:11.819Z,1019.71
2018-02-27T01:59:11.838Z,1019.73
2018-02-27T02:00:11.831Z,1019.74
2018-02-27T02:01:11.839Z,1019.74
2018-02-27T02:02:11.850Z,1019.73
2018-02-27T02:03:11.852Z,1019.71
2018-02-27T02:04:11.859Z,1019.72
2018-02-27T02:05:11.864Z,1019.72
2018-02-27T02:06:11.872Z,1019.68
2018-02-27T02:07:11.880Z,1019.70
2018-02-27T02:08:11.885Z,1019.68
2018-02-27T02:09:11.892Z,1019.64
2018-02-27T02:10:11.897Z,1019.65
2018-02-27T02:11:11.906Z,1019.61
2018-02-27T02:12:11.910Z,1019.58
2018-02-27T02:13:11.925Z,1019.56
2018-02-27T02:14:11.932Z,1019.59
2018-02-27T02:15:11.929Z,1019.50
2018-02-27T02:16:11.936Z,1019.54
2018-02-27T02:17:11.944Z,1019.52
2018-02-27T02:18:11.951Z,1019.47
2018-02-27T02:19:11.958Z,1019.47
2018-02-27T02:20:11.965Z,1019.48
2018-02-27T02:21:11.973Z,1019.50
2018-02-27T02:22:11.976Z,1019.49
2018-02-27T02:23:11.981Z,1019.49
2018-02-27T02:24:11.991Z,1019.47
2018-02-27T02:25:11.996Z,1019.47
2018-02-27T02:26:12.003Z,1019.47
2018-02-27T02:27:12.008Z,1019.47
2018-02-27T02:28:12.016Z,1019.48
2018-02-27T02:29:12.023Z,1019.47
2018-02-27T02:30:12.029Z,1019.43
2018-02-27T02:31:12.036Z,1019.44
2018-02-27T02:32:12.049Z,1019.44
2018-02-27T02:33:12.052Z,1019.43
2018-02-27T02:34:12.073Z,1019.39
2018-02-27T02:35:12.062Z,1019.38
2018-02-27T02:36:12.069Z,1019.34
2018-02-27T02:37:12.078Z,1019.33
2018-02-27T02:38:12.082Z,1019.29
2018-02-27T02:39:12.087Z,1019.29
2018-02-27T02:40:12.097Z,1019.29
2018-02-27T02:41:12.101Z,1019.29
2018-02-27T02:42:12.107Z,1019.30
2018-02-27T02:43:12.113Z,1019.31
2018-02-27T02:44:12.120Z,1019.31
2018-02-27T02:45:12.127Z,1019.32
2018-02-27T02:46:12.135Z,1019.31
2018-02-27T02:47:12.142Z,1019.27
2018-02-27T02:48:12.145Z,1019.31
2018-02-27T02:49:12.153Z,1019.31
2018-02-27T02:50:12.174Z,1019.27
2018-02-27T02:51:12.164Z,1019.22
2018-02-27T02:52:12.175Z,1019.21
2018-02-27T02:53:12.179Z,1019.20
2018-02-27T02:54:12.185Z,1019.16
2018-02-27T02:55:12.188Z,1019.14
2018-02-27T02:56:12.201Z,1019.15
2018-02-27T02:57:12.205Z,1019.15
2018-02-27T02:58:12.210Z,1019.13
2018-02-27T02:59:12.215Z,1019.16
2018-02-27T03:00:12.223Z,1019.10
2018-02-27T03:01:12.229Z,1019.10
2018-02-27T03:02:12.236Z,1019.15
2018-02-27T03:03:12.247Z,1019.14
2018-02-27T03:04:12.253Z,1019.11
2018-02-27T03:05:12.256Z,1019.17
2018-02-27T03:06:12.261Z,1019.20
2018-02-27T03:07:12.267Z,1019.14
2018-02-27T03:08:12.276Z,1019.18
2018-02-27T03:09:12.282Z,1019.13
2018-02-27T03:10:12.287Z,1019.14
2018-02-27T03:11:12.294Z,1019.09
2018-02-27T03:12:12.302Z,1019.08
2018-02-27T03:13:12.307Z,1019.05
2018-02-27T03:14:12.314Z,1019.02
2018-02-27T03:15:12.319Z,1019.04
2018-02-27T03:16:12.326Z,1018.97
2018-02-27T03:17:12.334Z,1018.94
2018-02-27T03:18:12.339Z,1018.99
2018-02-27T03:19:12.346Z,1018.97
2018-02-27T03:20:12.350Z,1018.98
2018-02-27T03:21:12.358Z,1018.95
2018-02-27T03:22:12.363Z,1018.97
2018-02-27T03:23:12.375Z,1018.96
2018-02-27T03:24:12.380Z,1018.92
2018-02-27T03:25:12.385Z,1018.96
2018-02-27T03:26:12.390Z,1018.94
2018-02-27T03:27:12.396Z,1018.89
2018-02-27T03:28:12.403Z,1018.89
2018-02-27T03:29:12.408Z,1018.89
2018-02-27T03:30:12.421Z,1018.84
2018-02-27T03:31:12.422Z,1018.83
2018-02-27T03:32:12.428Z,1018.81
2018-02-27T03:33:12.435Z,1018.82
2018-02-27T03:34:12.442Z,1018.86
2018-02-27T03:35:12.453Z,1018.83
2018-02-27T03:36:12.453Z,1018.86
2018-02-27T03:37:12.458Z,1018.85
2018-02-27T03:38:12.466Z,1018.89
2018-02-27T03:39:12.472Z,1018.85
2018-02-27T03:40:12.482Z,1018.80
2018-02-27T03:41:12.487Z,1018.81
2018-02-27T03:42:12.490Z,1018.83
2018-02-27T03:43:12.496Z,1018.84
2018-02-27T03:44:12.501Z,1018.82
2018-02-27T03:45:12.512Z,1018.76
2018-02-27T03:46:12.520Z,1018.81
2018-02-27T03:47:12.525Z,1018.77
2018-02-27T03:48:12.531Z,1018.78
2018-02-27T03:49:12.535Z,1018.77
2018-02-27T03:50:12.540Z,1018.76
2018-02-27T03:51:12.544Z,1018.76
2018-02-27T03:52:12.556Z,1018.73
2018-02-27T03:53:12.559Z,1018.75
2018-02-27T03:54:12.564Z,1018.75
2018-02-27T03:55:12.572Z,1018.72
2018-02-27T03:56:12.576Z,1018.73
2018-02-27T03:57:12.582Z,1018.74
2018-02-27T03:58:12.587Z,1018.75
2018-02-27T03:59:12.602Z,1018.74
2018-02-27T04:00:12.601Z,1018.72
2018-02-27T04:01:12.609Z,1018.73
2018-02-27T04:02:12.617Z,1018.72
2018-02-27T04:03:12.622Z,1018.70
2018-02-27T04:04:12.629Z,1018.70
2018-02-27T04:05:12.687Z,1018.71
2018-02-27T04:06:12.638Z,1018.73
2018-02-27T04:07:12.647Z,1018.69
2018-02-27T04:08:12.658Z,1018.69
2018-02-27T04:09:12.663Z,1018.72
2018-02-27T04:10:12.662Z,1018.69
2018-02-27T04:11:12.670Z,1018.71
2018-02-27T04:12:12.676Z,1018.67
2018-02-27T04:13:12.682Z,1018.65
2018-02-27T04:14:12.687Z,1018.68
2018-02-27T04:15:12.696Z,1018.65
2018-02-27T04:16:12.701Z,1018.64
2018-02-27T04:17:12.707Z,1018.64
2018-02-27T04:18:12.712Z,1018.69
2018-02-27T04:19:12.718Z,1018.63
2018-02-27T04:20:12.726Z,1018.69
2018-02-27T04:21:12.732Z,1018.68
2018-02-27T04:22:12.737Z,1018.67
2018-02-27T04:23:12.748Z,1018.69
2018-02-27T04:24:12.749Z,1018.65
2018-02-27T04:25:12.755Z,1018.65
2018-02-27T04:26:12.761Z,1018.65
2018-02-27T04:27:12.767Z,1018.63
2018-02-27T04:28:12.773Z,1018.65
2018-02-27T04:29:12.779Z,1018.61
2018-02-27T04:30:12.784Z,1018.56
2018-02-27T04:31:12.797Z,1018.55
2018-02-27T04:32:12.798Z,1018.59
2018-02-27T04:33:12.804Z,1018.58
2018-02-27T04:34:12.812Z,1018.57
2018-02-27T04:35:12.816Z,1018.59
2018-02-27T04:36:12.823Z,1018.62
2018-02-27T04:37:12.838Z,1018.60
2018-02-27T04:38:12.834Z,1018.59
2018-02-27T04:39:12.842Z,1018.61
2018-02-27T04:40:12.848Z,1018.61
2018-02-27T04:41:12.854Z,1018.59
2018-02-27T04:42:12.860Z,1018.61
2018-02-27T04:43:12.864Z,1018.60
2018-02-27T04:44:12.871Z,1018.60
2018-02-27T04:45:12.883Z,1018.62
2018-02-27T04:46:12.883Z,1018.64
2018-02-27T04:47:12.888Z,1018.65
2018-02-27T04:48:12.895Z,1018.63
2018-02-27T04:49:12.903Z,1018.62
2018-02-27T04:50:12.907Z,1018.66
2018-02-27T04:51:12.914Z,1018.68
2018-02-27T04:52:12.918Z,1018.69
2018-02-27T04:53:12.927Z,1018.69
2018-02-27T04:54:12.933Z,1018.67
2018-02-27T04:55:12.939Z,1018.67
2018-02-27T04:56:12.943Z,1018.73
2018-02-27T04:57:12.954Z,1018.68
2018-02-27T04:58:12.957Z,1018.70
2018-02-27T04:59:12.964Z,1018.68
2018-02-27T05:00:12.971Z,1018.69
2018-02-27T05:01:12.975Z,1018.67
2018-02-27T05:02:12.981Z,1018.71
2018-02-27T05:03:12.986Z,1018.70
2018-02-27T05:04:12.994Z,1018.72
2018-02-27T05:05:13.000Z,1018.68
2018-02-27T05:06:13.006Z,1018.63
2018-02-27T05:07:13.014Z,1018.65
2018-02-27T05:08:13.016Z,1018.70
2018-02-27T05:09:13.024Z,1018.70
2018-02-27T05:10:13.028Z,1018.65
2018-02-27T05:11:13.035Z,1018.65
2018-02-27T05:12:13.041Z,1018.64
2018-02-27T05:13:13.048Z,1018.62
2018-02-27T05:14:13.055Z,1018.65
2018-02-27T05:15:13.061Z,1018.68
2018-02-27T05:16:13.066Z,1018.69
2018-02-27T05:17:13.072Z,1018.67
2018-02-27T05:18:13.104Z,1018.66
2018-02-27T05:19:13.140Z,1018.69
2018-02-27T05:20:13.090Z,1018.67
2018-02-27T05:21:13.095Z,1018.64
2018-02-27T05:22:13.102Z,1018.64
2018-02-27T05:23:13.109Z,1018.63
2018-02-27T05:24:13.118Z,1018.64
2018-02-27T05:25:13.121Z,1018.66
2018-02-27T05:26:13.128Z,1018.64
2018-02-27T05:27:13.133Z,1018.60
2018-02-27T05:28:13.143Z,1018.58
2018-02-27T05:29:13.146Z,1018.55
2018-02-27T05:30:13.152Z,1018.59
2018-02-27T05:31:13.158Z,1018.61
2018-02-27T05:32:13.163Z,1018.61
2018-02-27T05:33:13.170Z,1018.59
2018-02-27T05:34:13.176Z,1018.55
2018-02-27T05:35:13.182Z,1018.52
2018-02-27T05:36:13.187Z,1018.55
2018-02-27T05:37:13.194Z,1018.55
2018-02-27T05:38:13.201Z,1018.53
2018-02-27T05:39:13.208Z,1018.53
2018-02-27T05:40:13.212Z,1018.54
2018-02-27T05:41:13.219Z,1018.51
2018-02-27T05:42:13.223Z,1018.55
2018-02-27T05:43:13.230Z,1018.52
2018-02-27T05:44:13.240Z,1018.54
2018-02-27T05:45:13.243Z,1018.54
2018-02-27T05:46:13.250Z,1018.49
2018-02-27T05:47:13.254Z,1018.49
2018-02-27T05:48:13.265Z,1018.46
2018-02-27T05:49:13.270Z,1018.47
2018-02-27T05:50:13.269Z,1018.49
2018-02-27T05:51:13.276Z,1018.53
2018-02-27T05:52:13.284Z,1018.55
2018-02-27T05:53:13.288Z,1018.57
2018-02-27T05:54:13.295Z,1018.54
2018-02-27T05:55:13.302Z,1018.57
2018-02-27T05:56:13.307Z,1018.57
2018-02-27T05:57:13.314Z,1018.55
2018-02-27T05:58:13.320Z,1018.52
2018-02-27T05:59:13.328Z,1018.57
2018-02-27T06:00:13.332Z,1018.57
2018-02-27T06:01:13.344Z,1018.54
2018-02-27T06:02:13.345Z,1018.57
2018-02-27T06:03:13.359Z,1018.56
2018-02-27T06:04:13.357Z,1018.59
2018-02-27T06:05:13.364Z,1018.63
2018-02-27T06:06:13.368Z,1018.66
2018-02-27T06:07:13.378Z,1018.73
2018-02-27T06:08:13.379Z,1018.67
2018-02-27T06:09:13.389Z,1018.74
2018-02-27T06:10:13.392Z,1018.73
2018-02-27T06:11:13.407Z,1018.73
2018-02-27T06:12:13.405Z,1018.74
2018-02-27T06:13:13.408Z,1018.75
2018-02-27T06:14:13.421Z,1018.76
2018-02-27T06:15:13.424Z,1018.75
2018-02-27T06:16:13.430Z,1018.71
2018-02-27T06:17:13.433Z,1018.72
2018-02-27T06:18:13.445Z,1018.75
2018-02-27T06:19:13.449Z,1018.74
2018-02-27T06:20:13.455Z,1018.74
2018-02-27T06:21:13.462Z,1018.74
2018-02-27T06:22:13.464Z,1018.76
2018-02-27T06:23:13.472Z,1018.74
2018-02-27T06:24:13.478Z,1018.78
2018-02-27T06:25:13.485Z,1018.76
2018-02-27T06:26:13.489Z,1018.77
2018-02-27T06:27:13.511Z,1018.78
2018-02-27T06:28:13.503Z,1018.74
2018-02-27T06:29:13.507Z,1018.77
2018-02-27T06:30:13.513Z,1018.76
2018-02-27T06:31:13.525Z,1018.73
2018-02-27T06:32:13.523Z,1018.71
2018-02-27T06:33:13.536Z,1018.73
2018-02-27T06:34:13.541Z,1018.78
2018-02-27T06:35:13.547Z,1018.75
2018-02-27T06:36:13.560Z,1018.78
2018-02-27T06:37:13.555Z,1018.76
2018-02-27T06:38:13.566Z,1018.78
2018-02-27T06:39:13.567Z,1018.74
2018-02-27T06:40:13.583Z,1018.80
2018-02-27T06:41:13.581Z,1018.77
2018-02-27T06:42:13.599Z,1018.75
2018-02-27T06:43:13.597Z,1018.77
2018-02-27T06:44:13.596Z,1018.76
2018-02-27T06:45:13.605Z,1018.77
2018-02-27T06:46:13.612Z,1018.78
2018-02-27T06:47:13.657Z,1018.78
2018-02-27T06:48:13.622Z,1018.78
2018-02-27T06:49:13.631Z,1018.78
2018-02-27T06:50:13.634Z,1018.83
2018-02-27T06:51:13.642Z,1018.81
2018-02-27T06:52:13.648Z,1018.84
2018-02-27T06:53:13.654Z,1018.83
2018-02-27T06:54:13.660Z,1018.76
2018-02-27T06:55:13.724Z,1018.79
2018-02-27T06:56:13.672Z,1018.80
2018-02-27T06:57:13.679Z,1018.78
2018-02-27T06:58:13.688Z,1018.76
2018-02-27T06:59:13.692Z,1018.75
2018-02-27T07:00:13.699Z,1018.74
2018-02-27T07:01:13.707Z,1018.77
2018-02-27T07:02:13.711Z,1018.78
2018-02-27T07:03:13.718Z,1018.76
2018-02-27T07:04:13.723Z,1018.75
2018-02-27T07:05:13.828Z,1018.74
2018-02-27T07:06:13.733Z,1018.73
2018-02-27T07:07:13.752Z,1018.76
2018-02-27T07:08:13.747Z,1018.76
2018-02-27T07:09:13.746Z,1018.81
2018-02-27T07:10:13.758Z,1018.79
2018-02-27T07:11:13.760Z,1018.77
2018-02-27T07:12:13.764Z,1018.79
2018-02-27T07:13:13.782Z,1018.71
2018-02-27T07:14:13.774Z,1018.72
2018-02-27T07:15:13.786Z,1018.79
2018-02-27T07:16:13.789Z,1018.73
2018-02-27T07:17:13.795Z,1018.75
2018-02-27T07:18:13.799Z,1018.74
2018-02-27T07:19:13.806Z,1018.77
2018-02-27T07:20:13.818Z,1018.76
2018-02-27T07:21:13.820Z,1018.78
2018-02-27T07:22:14.059Z,1018.80
2018-02-27T07:23:13.830Z,1018.78
2018-02-27T07:24:13.837Z,1018.83
2018-02-27T07:25:13.848Z,1018.83
2018-02-27T07:26:13.847Z,1018.82
2018-02-27T07:27:13.857Z,1018.78
2018-02-27T07:28:13.861Z,1018.81
2018-02-27T07:29:13.868Z,1018.76
2018-02-27T07:30:13.910Z,1018.78
2018-02-27T07:31:13.882Z,1018.77
2018-02-27T07:32:13.888Z,1018.73
2018-02-27T07:33:13.895Z,1018.75
2018-02-27T07:34:13.900Z,1018.76
2018-02-27T07:35:14.655Z,1018.73
2018-02-27T07:36:13.912Z,1018.75
2018-02-27T07:37:13.918Z,1018.74
2018-02-27T07:38:13.924Z,1018.75
2018-02-27T07:39:13.933Z,1018.76
2018-02-27T07:40:13.936Z,1018.76
2018-02-27T07:41:13.946Z,1018.73
2018-02-27T07:42:13.954Z,1018.79
2018-02-27T07:43:13.954Z,1018.80
2018-02-27T07:44:13.961Z,1018.80
2018-02-27T07:45:13.967Z,1018.77
2018-02-27T07:46:13.981Z,1018.81
2018-02-27T07:47:14.031Z,1018.83
2018-02-27T07:48:13.989Z,1018.79
2018-02-27T07:49:14.001Z,1018.85
2018-02-27T07:50:14.000Z,1018.79
2018-02-27T07:51:14.008Z,1018.81
2018-02-27T07:52:14.014Z,1018.78
2018-02-27T07:53:14.020Z,1018.77
2018-02-27T07:54:14.026Z,1018.76
2018-02-27T07:55:14.032Z,1018.82
2018-02-27T07:56:14.041Z,1018.82
2018-02-27T07:57:14.065Z,1018.84
2018-02-27T07:58:14.051Z,1018.85
2018-02-27T07:59:14.058Z,1018.85
2018-02-27T08:00:14.065Z,1018.85
2018-02-27T08:01:14.077Z,1018.84
2018-02-27T08:02:14.079Z,1018.85
2018-02-27T08:03:14.084Z,1018.85
2018-02-27T08:04:14.142Z,1018.82
2018-02-27T08:05:14.099Z,1018.80
2018-02-27T08:06:14.108Z,1018.78
2018-02-27T08:07:14.112Z,1018.80
2018-02-27T08:09:14.135Z,1018.82
2018-02-27T08:10:14.141Z,1018.78
2018-02-27T08:11:14.154Z,1018.79
2018-02-27T08:12:14.156Z,1018.79
2018-02-27T08:13:14.166Z,1018.77
2018-02-27T08:14:14.311Z,1018.72
2018-02-27T08:15:14.166Z,1018.66
2018-02-27T08:16:14.191Z,1018.75
2018-02-27T08:17:14.181Z,1018.70
2018-02-27T08:18:14.186Z,1018.72
2018-02-27T08:19:14.195Z,1018.69
2018-02-27T08:20:14.200Z,1018.73
2018-02-27T08:21:14.209Z,1018.68
2018-02-27T08:22:14.217Z,1018.72
2018-02-27T08:23:14.222Z,1018.69
2018-02-27T08:24:14.227Z,1018.68
2018-02-27T08:25:14.244Z,1018.69
2018-02-27T08:26:14.244Z,1018.68
2018-02-27T08:27:14.246Z,1018.67
2018-02-27T08:28:14.253Z,1018.65
2018-02-27T08:29:14.262Z,1018.65
2018-02-27T08:30:14.269Z,1018.68
2018-02-27T08:31:14.275Z,1018.66
2018-02-27T08:32:14.281Z,1018.65
2018-02-27T08:33:14.290Z,1018.68
2018-02-27T08:34:14.298Z,1018.68
2018-02-27T08:35:14.300Z,1018.66
2018-02-27T08:36:14.307Z,1018.66
2018-02-27T08:37:14.319Z,1018.63
2018-02-27T08:38:14.323Z,1018.65
2018-02-27T08:39:14.327Z,1018.67
2018-02-27T08:40:14.390Z,1018.68
2018-02-27T08:41:14.663Z,1018.65
2018-02-27T08:42:14.352Z,1018.62
2018-02-27T08:43:14.569Z,1018.62
2018-02-27T08:44:14.408Z,1018.64
2018-02-27T08:45:14.369Z,1018.62
2018-02-27T08:46:14.388Z,1018.65
2018-02-27T08:47:14.383Z,1018.63
2018-02-27T08:48:14.398Z,1018.59
2018-02-27T08:49:14.396Z,1018.62
2018-02-27T08:50:14.402Z,1018.56
2018-02-27T08:51:14.409Z,1018.54
2018-02-27T08:52:14.417Z,1018.58
2018-02-27T08:53:14.521Z,1018.57
2018-02-27T08:54:14.431Z,1018.54
2018-02-27T08:55:14.434Z,1018.50
2018-02-27T08:56:14.450Z,1018.56
2018-02-27T08:57:14.450Z,1018.55
2018-02-27T08:58:14.455Z,1018.53
2018-02-27T08:59:14.462Z,1018.49
2018-02-27T09:00:14.475Z,1018.47
2018-02-27T09:01:14.480Z,1018.49
2018-02-27T09:02:14.488Z,1018.45
2018-02-27T09:03:14.490Z,1018.43
2018-02-27T09:04:14.511Z,1018.44
2018-02-27T09:05:14.503Z,1018.42
2018-02-27T09:06:14.510Z,1018.41
2018-02-27T09:07:14.625Z,1018.41
2018-02-27T09:08:14.527Z,1018.43
2018-02-27T09:09:14.711Z,1018.41
2018-02-27T09:10:14.553Z,1018.41
2018-02-27T09:11:14.545Z,1018.39
2018-02-27T09:12:14.553Z,1018.32
2018-02-27T09:13:14.557Z,1018.30
2018-02-27T09:14:14.566Z,1018.36
2018-02-27T09:15:14.574Z,1018.34
2018-02-27T09:16:14.578Z,1018.38
2018-02-27T09:17:14.591Z,1018.32
2018-02-27T09:18:14.591Z,1018.33
2018-02-27T09:19:14.649Z,1018.33
2018-02-27T09:20:14.644Z,1018.30
2018-02-27T09:21:14.615Z,1018.34
2018-02-27T09:22:14.625Z,1018.30
2018-02-27T09:23:14.625Z,1018.26
2018-02-27T09:24:14.638Z,1018.21
2018-02-27T09:25:14.644Z,1018.26
2018-02-27T09:26:14.654Z,1018.26
2018-02-27T09:27:14.655Z,1018.28
2018-02-27T09:28:14.668Z,1018.19
2018-02-27T09:29:14.696Z,1018.20
2018-02-27T09:30:14.676Z,1018.19
2018-02-27T09:31:14.688Z,1018.15
2018-02-27T09:32:17.166Z,1018.15
2018-02-27T09:33:14.697Z,1018.20
2018-02-27T09:34:14.718Z,1018.21
2018-02-27T09:35:14.713Z,1018.20
2018-02-27T09:36:14.718Z,1018.21
2018-02-27T09:37:14.726Z,1018.20
2018-02-27T09:38:14.800Z,1018.16
2018-02-27T09:39:14.744Z,1018.18
2018-02-27T09:40:14.752Z,1018.18
2018-02-27T09:41:14.755Z,1018.12
2018-02-27T09:42:14.760Z,1018.12
2018-02-27T09:43:14.772Z,1018.10
2018-02-27T09:44:14.777Z,1018.10
2018-02-27T09:45:14.785Z,1018.14
2018-02-27T09:46:14.795Z,1018.12
2018-02-27T09:47:14.798Z,1018.12
2018-02-27T09:48:14.807Z,1018.14
2018-02-27T09:49:14.813Z,1018.16
2018-02-27T09:50:14.827Z,1018.08
2018-02-27T09:51:14.825Z,1018.16
2018-02-27T09:52:14.831Z,1018.19
2018-02-27T09:53:14.843Z,1018.18
2018-02-27T09:54:14.844Z,1018.14
2018-02-27T09:55:14.850Z,1018.11
2018-02-27T09:56:14.869Z,1018.13
2018-02-27T09:57:14.874Z,1018.16
2018-02-27T09:58:14.873Z,1018.12
2018-02-27T09:59:14.883Z,1018.11
2018-02-27T10:00:14.891Z,1018.11
2018-02-27T10:01:14.898Z,1018.10
2018-02-27T10:02:14.906Z,1018.10
2018-02-27T10:03:14.913Z,1018.07
2018-02-27T10:04:14.922Z,1018.05
2018-02-27T10:05:14.930Z,1018.06
2018-02-27T10:06:15.523Z,1018.04
2018-02-27T10:07:14.949Z,1018.08
2018-02-27T10:08:14.952Z,1018.04
2018-02-27T10:09:14.975Z,1018.06
2018-02-27T10:10:14.979Z,1018.04
2018-02-27T10:11:14.975Z,1018.03
2018-02-27T10:12:14.984Z,1018.08
2018-02-27T10:13:15.098Z,1018.07
2018-02-27T10:14:15.003Z,1018.07
2018-02-27T10:15:15.188Z,1018.06
2018-02-27T10:16:15.025Z,1018.10
2018-02-27T10:17:15.027Z,1018.07
2018-02-27T10:18:15.032Z,1018.08
2018-02-27T10:19:15.041Z,1018.07
2018-02-27T10:20:15.050Z,1018.07
2018-02-27T10:21:15.056Z,1018.04
2018-02-27T10:22:15.906Z,1018.11
2018-02-27T10:23:15.092Z,1018.05
2018-02-27T10:24:15.079Z,1018.07
2018-02-27T10:25:15.091Z,1018.04
2018-02-27T10:26:15.097Z,1018.06
2018-02-27T10:27:15.103Z,1018.10
2018-02-27T10:28:15.411Z,1018.04
2018-02-27T10:29:15.133Z,1018.05
2018-02-27T10:30:15.129Z,1018.08
2018-02-27T10:31:15.139Z,1018.01
2018-02-27T10:32:15.165Z,1018.01
2018-02-27T10:33:15.154Z,1017.97
2018-02-27T10:34:15.163Z,1018.01
2018-02-27T10:35:15.171Z,1017.99
2018-02-27T10:36:15.180Z,1018.00
2018-02-27T10:37:15.198Z,1017.98
2018-02-27T10:38:15.207Z,1017.96
2018-02-27T10:39:15.204Z,1017.96
2018-02-27T10:40:15.215Z,1018.00
2018-02-27T10:41:15.225Z,1017.96
2018-02-27T10:42:15.232Z,1018.04
2018-02-27T10:43:16.560Z,1017.94
2018-02-27T10:44:15.250Z,1017.94
2018-02-27T10:45:15.257Z,1017.89
2018-02-27T10:46:15.263Z,1017.95
2018-02-27T10:47:15.274Z,1017.91
2018-02-27T10:48:15.282Z,1017.90
2018-02-27T10:49:15.287Z,1017.93
2018-02-27T10:50:15.298Z,1017.90
2018-02-27T10:51:15.306Z,1017.84
2018-02-27T10:52:15.311Z,1017.84
2018-02-27T10:53:15.337Z,1017.87
2018-02-27T10:54:15.327Z,1017.89
2018-02-27T10:55:15.350Z,1017.89
2018-02-27T10:56:15.352Z,1017.85
2018-02-27T10:57:15.390Z,1017.85
2018-02-27T10:58:15.363Z,1017.82
2018-02-27T10:59:15.372Z,1017.84
2018-02-27T11:00:15.380Z,1017.83
2018-02-27T11:01:15.390Z,1017.78
2018-02-27T11:02:15.398Z,1017.80
2018-02-27T11:03:15.409Z,1017.84
2018-02-27T11:04:15.414Z,1017.80
2018-02-27T11:05:15.423Z,1017.81
2018-02-27T11:06:15.436Z,1017.79
2018-02-27T11:07:15.453Z,1017.75
2018-02-27T11:08:15.455Z,1017.77
2018-02-27T11:09:15.458Z,1017.80
2018-02-27T11:10:15.466Z,1017.77
2018-02-27T11:11:15.474Z,1017.77
2018-02-27T11:12:15.492Z,1017.74
2018-02-27T11:13:15.493Z,1017.68
2018-02-27T11:14:15.499Z,1017.70
2018-02-27T11:15:15.507Z,1017.71
2018-02-27T11:16:15.537Z,1017.64
2018-02-27T11:17:15.529Z,1017.66
2018-02-27T11:18:15.534Z,1017.63
2018-02-27T11:19:15.560Z,1017.61
2018-02-27T11:20:15.658Z,1017.60
2018-02-27T11:21:15.561Z,1017.63
2018-02-27T11:22:15.570Z,1017.61
2018-02-27T11:23:15.582Z,1017.59
2018-02-27T11:24:15.591Z,1017.58
2018-02-27T11:25:15.693Z,1017.59
2018-02-27T11:26:15.612Z,1017.61
2018-02-27T11:27:15.613Z,1017.60
2018-02-27T11:28:15.646Z,1017.57
2018-02-27T11:29:15.630Z,1017.56
2018-02-27T11:30:18.040Z,1017.55
2018-02-27T11:31:16.792Z,1017.53
2018-02-27T11:32:15.667Z,1017.56
2018-02-27T11:33:15.665Z,1017.53
2018-02-27T11:34:15.676Z,1017.50
2018-02-27T11:35:15.684Z,1017.52
2018-02-27T11:36:15.694Z,1017.51
2018-02-27T11:37:15.699Z,1017.51
2018-02-27T11:38:15.708Z,1017.51
2018-02-27T11:39:15.716Z,1017.45
2018-02-27T11:40:15.724Z,1017.45
2018-02-27T11:41:15.733Z,1017.44
2018-02-27T11:42:16.953Z,1017.50
2018-02-27T11:43:15.747Z,1017.46
2018-02-27T11:44:15.760Z,1017.44
2018-02-27T11:45:15.766Z,1017.43
2018-02-27T11:46:15.783Z,1017.41
2018-02-27T11:47:15.793Z,1017.38
2018-02-27T11:48:15.797Z,1017.39
2018-02-27T11:49:15.803Z,1017.42
2018-02-27T11:50:15.808Z,1017.38
2018-02-27T11:51:15.820Z,1017.42
2018-02-27T11:52:15.827Z,1017.31
2018-02-27T11:53:15.840Z,1017.28
2018-02-27T11:54:15.845Z,1017.34
2018-02-27T11:55:15.855Z,1017.32
2018-02-27T11:56:15.856Z,1017.31
2018-02-27T11:57:15.866Z,1017.30
2018-02-27T11:58:15.873Z,1017.32
2018-02-27T11:59:15.883Z,1017.33
2018-02-27T12:00:15.891Z,1017.35
2018-02-27T12:03:15.916Z,1017.26
2018-02-27T12:04:15.931Z,1017.26
2018-02-27T12:05:15.933Z,1017.24
2018-02-27T12:06:15.948Z,1017.24
2018-02-27T12:07:15.951Z,1017.28
2018-02-27T12:08:16.030Z,1017.32